createdAt,value
2022-10-22T00:01:05.006Z,99765.53
2022-10-22T00:03:31.678Z,99770.66
2022-10-22T00:05:58.358Z,99764.75
2022-10-22T00:08:25.336Z,99765.69
2022-10-22T00:10:52.939Z,99765.66
2022-10-22T00:13:20.226Z,99766.53
2022-10-22T00:15:47.020Z,99756.31
2022-10-22T00:18:14.414Z,99752.88
2022-10-22T00:20:41.065Z,99754.63
2022-10-22T00:23:07.972Z,99754.63
2022-10-22T00:25:36.181Z,99746.03
2022-10-22T00:28:03.600Z,99750.25
2022-10-22T00:30:30.669Z,99752.78
2022-10-22T00:32:57.484Z,99745.97
2022-10-22T00:35:24.202Z,99747.72
2022-10-22T00:37:51.022Z,99747.66
2022-10-22T00:40:17.728Z,99752.66
2022-10-22T00:42:44.590Z,99750.81
2022-10-22T00:45:16.618Z,99754.19
2022-10-22T00:47:48.995Z,99749.88
2022-10-22T00:50:24.990Z,99740.44
2022-10-22T00:52:51.748Z,99748.28
2022-10-22T00:55:19.537Z,99753.53
2022-10-22T00:57:46.969Z,99749.28
2022-10-22T01:00:14.034Z,99748.47
2022-10-22T01:02:40.906Z,99743.41
2022-10-22T01:05:08.043Z,99738.28
2022-10-22T01:07:39.812Z,99744.28
2022-10-22T01:10:18.926Z,99738.34
2022-10-22T01:12:59.852Z,99744.34
2022-10-22T01:15:29.395Z,99746.03
2022-10-22T01:18:12.288Z,99741.66
2022-10-22T01:20:47.289Z,99745.97
2022-10-22T01:23:13.913Z,99745.13
2022-10-22T01:26:04.392Z,99750.28
2022-10-22T01:28:37.157Z,99742.63
2022-10-22T01:31:05.752Z,99747.81
2022-10-22T01:33:32.971Z,99748.59
2022-10-22T01:36:00.170Z,99751.19
2022-10-22T01:38:27.190Z,99754.59
2022-10-22T01:40:54.734Z,99751.16
2022-10-22T01:43:21.701Z,99756.31
2022-10-22T01:45:56.562Z,99749.44
2022-10-22T01:48:42.157Z,99754.50
2022-10-22T01:51:32.171Z,99754.50
2022-10-22T01:53:58.775Z,99749.44
2022-10-22T01:56:37.378Z,99752.88
2022-10-22T01:59:08.430Z,99756.41
2022-10-22T02:01:37.978Z,99753.09
2022-10-22T02:04:04.565Z,99759.09
2022-10-22T02:06:32.744Z,99759.84
2022-10-22T02:09:02.972Z,99758.09
2022-10-22T02:11:30.231Z,99758.19
2022-10-22T02:13:58.795Z,99763.28
2022-10-22T02:16:34.630Z,99761.56
2022-10-22T02:19:04.704Z,99760.66
2022-10-22T02:21:31.836Z,99769.13
2022-10-22T02:23:58.737Z,99774.28
2022-10-22T02:26:30.585Z,99776.91
2022-10-22T02:29:03.428Z,99771.84
2022-10-22T02:31:32.331Z,99768.47
2022-10-22T02:34:01.302Z,99766.84
2022-10-22T02:36:28.672Z,99773.75
2022-10-22T02:38:55.664Z,99770.28
2022-10-22T02:41:22.976Z,99771.97
2022-10-22T02:43:50.810Z,99761.69
2022-10-22T02:46:17.479Z,99766.81
2022-10-22T02:48:44.165Z,99767.72
2022-10-22T02:51:10.874Z,99768.50
2022-10-22T02:53:37.482Z,99776.22
2022-10-22T02:56:04.637Z,99775.34
2022-10-22T02:58:31.294Z,99783.03
2022-10-22T03:00:58.041Z,99780.44
2022-10-22T03:03:24.772Z,99778.75
2022-10-22T03:05:51.713Z,99781.34
2022-10-22T03:08:18.404Z,99779.63
2022-10-22T03:10:45.182Z,99777.84
2022-10-22T03:13:12.018Z,99779.63
2022-10-22T03:15:38.839Z,99783.00
2022-10-22T03:18:05.815Z,99777.81
2022-10-22T03:20:32.465Z,99777.78
2022-10-22T03:22:59.245Z,99776.88
2022-10-22T03:25:27.371Z,99776.91
2022-10-22T03:27:56.719Z,99775.28
2022-10-22T03:30:23.384Z,99777.94
2022-10-22T03:32:50.041Z,99766.69
2022-10-22T03:35:16.806Z,99774.38
2022-10-22T03:37:43.846Z,99770.06
2022-10-22T03:40:11.600Z,99771.78
2022-10-22T03:42:39.302Z,99770.13
2022-10-22T03:45:06.410Z,99778.75
2022-10-22T03:47:33.131Z,99775.34
2022-10-22T03:49:59.844Z,99775.41
2022-10-22T03:52:26.516Z,99777.13
2022-10-22T03:54:53.233Z,99773.69
2022-10-22T03:57:19.983Z,99770.31
2022-10-22T03:59:46.845Z,99774.56
2022-10-22T04:02:14.227Z,99772.00
2022-10-22T04:04:40.878Z,99782.28
2022-10-22T04:07:08.141Z,99786.47
2022-10-22T04:09:35.304Z,99775.31
2022-10-22T04:12:02.290Z,99787.34
2022-10-22T04:14:29.068Z,99779.69
2022-10-22T04:16:55.699Z,99778.88
2022-10-22T04:19:22.344Z,99779.72
2022-10-22T04:21:49.141Z,99782.25
2022-10-22T04:24:15.960Z,99783.97
2022-10-22T04:26:43.013Z,99780.56
2022-10-22T04:29:13.384Z,99783.09
2022-10-22T04:31:42.892Z,99776.25
2022-10-22T04:34:09.753Z,99778.03
2022-10-22T04:36:36.341Z,99774.63
2022-10-22T04:39:03.910Z,99778.88
2022-10-22T04:41:35.062Z,99783.91
2022-10-22T04:44:02.544Z,99782.94
2022-10-22T04:46:30.390Z,99783.81
2022-10-22T04:48:57.185Z,99786.47
2022-10-22T04:51:24.893Z,99779.69
2022-10-22T04:53:51.636Z,99788.31
2022-10-22T04:56:20.764Z,99797.72
2022-10-22T04:58:48.878Z,99791.63
2022-10-22T05:01:17.333Z,99796.75
2022-10-22T05:03:44.715Z,99801.91
2022-10-22T05:08:43.621Z,99795.06
2022-10-22T05:11:20.261Z,99799.34
2022-10-22T05:13:47.153Z,99794.97
2022-10-22T05:16:14.216Z,99797.56
2022-10-22T05:18:42.045Z,99797.63
2022-10-22T05:21:10.609Z,99796.66
2022-10-22T05:23:37.530Z,99799.31
2022-10-22T05:26:08.272Z,99796.75
2022-10-22T05:28:35.630Z,99801.91
2022-10-22T05:31:02.595Z,99804.53
2022-10-22T05:33:29.808Z,99804.59
2022-10-22T05:35:56.896Z,99808.97
2022-10-22T05:38:24.036Z,99806.53
2022-10-22T05:41:20.045Z,99809.13
2022-10-22T05:43:47.114Z,99803.13
2022-10-22T05:46:19.835Z,99815.16
2022-10-22T05:48:51.376Z,99814.28
2022-10-22T05:51:18.612Z,99821.97
2022-10-22T05:53:45.288Z,99813.38
2022-10-22T05:56:13.327Z,99821.16
2022-10-22T05:58:40.130Z,99816.03
2022-10-22T06:01:12.985Z,99820.41
2022-10-22T06:03:39.951Z,99817.88
2022-10-22T06:06:26.885Z,99819.59
2022-10-22T06:08:54.733Z,99817.94
2022-10-22T06:11:22.480Z,99815.41
2022-10-22T06:13:50.093Z,99816.31
2022-10-22T06:16:16.937Z,99810.38
2022-10-22T06:18:43.816Z,99820.75
2022-10-22T06:21:11.729Z,99819.88
2022-10-22T06:23:41.222Z,99819.00
2022-10-22T06:26:08.446Z,99822.31
2022-10-22T06:28:35.492Z,99823.19
2022-10-22T06:31:02.738Z,99817.91
2022-10-22T06:33:29.997Z,99826.41
2022-10-22T06:36:06.751Z,99825.50
2022-10-22T06:38:34.308Z,99827.25
2022-10-22T06:41:08.545Z,99834.16
2022-10-22T06:43:35.806Z,99831.56
2022-10-22T06:46:03.717Z,99842.75
2022-10-22T06:48:30.329Z,99835.91
2022-10-22T06:50:57.054Z,99837.69
2022-10-22T06:53:23.928Z,99834.31
2022-10-22T06:55:50.578Z,99837.69
2022-10-22T06:58:17.154Z,99836.06
2022-10-22T07:00:43.742Z,99839.53
2022-10-22T07:03:12.844Z,99845.66
2022-10-22T07:05:40.017Z,99844.88
2022-10-22T07:08:06.616Z,99850.94
2022-10-22T07:10:33.154Z,99844.09
2022-10-22T07:12:59.813Z,99845.06
2022-10-22T07:15:26.390Z,99846.78
2022-10-22T07:17:52.954Z,99849.34
2022-10-22T07:20:21.281Z,99851.94
2022-10-22T07:22:47.851Z,99850.16
2022-10-22T07:25:14.491Z,99851.91
2022-10-22T07:27:41.387Z,99851.13
2022-10-22T07:30:08.542Z,99849.44
2022-10-22T07:32:35.091Z,99855.50
2022-10-22T07:35:01.710Z,99852.06
2022-10-22T07:37:28.462Z,99853.69
2022-10-22T07:39:55.033Z,99849.34
2022-10-22T07:42:21.761Z,99847.69
2022-10-22T07:44:48.333Z,99853.75
2022-10-22T07:47:14.909Z,99845.16
2022-10-22T07:49:41.618Z,99851.94
2022-10-22T07:52:08.377Z,99846.75
2022-10-22T07:54:35.341Z,99845.06
2022-10-22T07:57:02.154Z,99852.00
2022-10-22T07:59:28.737Z,99853.69
2022-10-22T08:01:55.447Z,99848.72
2022-10-22T08:04:22.198Z,99852.13
2022-10-22T08:06:48.910Z,99857.34
2022-10-22T08:09:15.679Z,99848.03
2022-10-22T08:11:42.546Z,99850.66
2022-10-22T08:14:09.204Z,99849.84
2022-10-22T08:16:35.897Z,99851.59
2022-10-22T08:19:02.564Z,99853.38
2022-10-22T08:21:29.292Z,99846.53
2022-10-22T08:23:55.975Z,99844.69
2022-10-22T08:26:22.624Z,99849.91
2022-10-22T08:28:49.253Z,99850.75
2022-10-22T08:31:15.881Z,99844.56
2022-10-22T08:33:42.832Z,99852.34
2022-10-22T08:36:09.569Z,99846.16
2022-10-22T08:38:36.226Z,99851.41
2022-10-22T08:41:13.426Z,99853.25
2022-10-22T08:43:48.907Z,99852.47
2022-10-22T08:46:15.433Z,99855.16
2022-10-22T08:48:48.112Z,99849.09
2022-10-22T08:51:19.194Z,99851.66
2022-10-22T08:53:46.009Z,99855.91
2022-10-22T08:56:14.224Z,99855.81
2022-10-22T08:58:47.864Z,99850.59
2022-10-22T09:01:18.720Z,99852.25
2022-10-22T09:03:56.133Z,99848.00
2022-10-22T09:06:25.047Z,99854.97
2022-10-22T09:08:52.786Z,99847.25
2022-10-22T09:11:45.521Z,99854.25
2022-10-22T09:14:16.799Z,99850.84
2022-10-22T09:17:01.685Z,99853.47
2022-10-22T09:19:42.321Z,99858.56
2022-10-22T09:22:11.784Z,99845.72
2022-10-22T09:24:48.737Z,99843.91
2022-10-22T09:27:17.149Z,99844.72
2022-10-22T09:29:44.646Z,99845.63
2022-10-22T09:32:11.250Z,99849.06
2022-10-22T09:34:37.997Z,99848.97
2022-10-22T09:37:06.468Z,99854.19
2022-10-22T09:39:34.584Z,99848.25
2022-10-22T09:42:01.320Z,99845.78
2022-10-22T09:44:27.944Z,99845.88
2022-10-22T09:46:54.602Z,99846.81
2022-10-22T09:49:22.794Z,99846.03
2022-10-22T09:51:52.351Z,99842.63
2022-10-22T09:54:38.429Z,99840.09
2022-10-22T09:57:05.109Z,99846.03
2022-10-22T09:59:51.502Z,99843.47
2022-10-22T10:02:37.999Z,99846.03
2022-10-22T10:05:06.475Z,99843.56
2022-10-22T10:07:34.092Z,99829.06
2022-10-22T10:10:00.669Z,99825.59
2022-10-22T10:12:27.327Z,99823.94
2022-10-22T10:14:56.621Z,99823.88
2022-10-22T10:17:28.868Z,99823.94
2022-10-22T10:20:14.791Z,99816.38
2022-10-22T10:22:44.640Z,99827.69
2022-10-22T10:25:17.610Z,99822.56
2022-10-22T10:27:47.900Z,99819.81
2022-10-22T10:30:19.382Z,99813.81
2022-10-22T10:33:12.315Z,99815.59
2022-10-22T10:35:59.265Z,99805.41
2022-10-22T10:38:28.821Z,99812.25
2022-10-22T10:40:59.030Z,99813.88
2022-10-22T10:43:33.790Z,99812.16
2022-10-22T10:46:26.666Z,99811.47
2022-10-22T10:48:59.411Z,99814.03
2022-10-22T10:51:37.604Z,99807.19
2022-10-22T10:54:10.521Z,99809.66
2022-10-22T10:56:41.988Z,99801.94
2022-10-22T10:59:18.840Z,99801.97
2022-10-22T11:02:04.049Z,99801.94
2022-10-22T11:04:30.667Z,99801.94
2022-10-22T11:07:11.074Z,99796.75
2022-10-22T11:09:58.185Z,99793.31
2022-10-22T11:12:31.605Z,99796.75
2022-10-22T11:15:15.381Z,99793.41
2022-10-22T11:17:44.998Z,99786.66
2022-10-22T11:20:14.621Z,99786.78
2022-10-22T11:23:13.507Z,99788.50
2022-10-22T11:25:39.618Z,99786.63
2022-10-22T11:28:12.081Z,99782.22
2022-10-22T11:30:40.674Z,99783.09
2022-10-22T11:33:10.750Z,99783.91
2022-10-22T11:35:45.230Z,99780.50
2022-10-22T11:38:14.865Z,99783.03
2022-10-22T11:40:47.422Z,99777.84
2022-10-22T11:43:27.525Z,99772.53
2022-10-22T11:45:58.478Z,99769.09
2022-10-22T11:48:28.336Z,99761.34
2022-10-22T11:51:02.271Z,99756.13
2022-10-22T11:53:39.129Z,99757.88
2022-10-22T11:56:10.790Z,99761.34
2022-10-22T11:58:39.276Z,99763.09
2022-10-22T12:01:08.648Z,99770.84
2022-10-22T12:03:35.341Z,99767.38
2022-10-22T12:06:05.041Z,99761.34
2022-10-22T12:08:32.773Z,99763.03
2022-10-22T12:11:13.604Z,99763.94
2022-10-22T12:13:58.769Z,99763.16
2022-10-22T12:16:32.364Z,99759.72
2022-10-22T12:19:10.500Z,99753.75
2022-10-22T12:21:41.703Z,99753.81
2022-10-22T12:24:13.084Z,99749.53
2022-10-22T12:26:39.739Z,99745.25
2022-10-22T12:29:09.902Z,99745.22
2022-10-22T12:31:37.557Z,99750.41
2022-10-22T12:34:04.780Z,99745.25
2022-10-22T12:36:33.288Z,99741.81
2022-10-22T12:39:00.373Z,99740.06
2022-10-22T12:41:34.472Z,99735.75
2022-10-22T12:44:01.984Z,99738.31
2022-10-22T12:46:30.430Z,99736.53
2022-10-22T12:49:00.083Z,99730.41
2022-10-22T12:51:26.772Z,99741.59
2022-10-22T12:53:54.452Z,99734.66
2022-10-22T12:56:23.031Z,99737.94
2022-10-22T12:58:52.893Z,99746.50
2022-10-22T13:01:19.665Z,99733.53
2022-10-22T13:03:51.188Z,99732.63
2022-10-22T13:06:20.919Z,99731.75
2022-10-22T13:09:16.765Z,99730.88
2022-10-22T13:12:04.750Z,99724.84
2022-10-22T13:14:33.185Z,99718.00
2022-10-22T13:17:16.484Z,99723.19
2022-10-22T13:19:45.581Z,99722.31
2022-10-22T13:22:29.047Z,99724.91
2022-10-22T13:24:59.975Z,99712.81
2022-10-22T13:27:28.134Z,99724.78
2022-10-22T13:29:55.428Z,99723.88
2022-10-22T13:32:33.032Z,99722.13
2022-10-22T13:35:03.064Z,99722.97
2022-10-22T13:37:32.450Z,99720.38
2022-10-22T13:39:59.112Z,99722.94
2022-10-22T13:42:25.711Z,99716.91
2022-10-22T13:44:52.269Z,99716.88
2022-10-22T13:47:25.606Z,99723.75
2022-10-22T13:49:54.176Z,99719.47
2022-10-22T13:52:40.691Z,99718.63
2022-10-22T13:55:25.649Z,99718.56
2022-10-22T13:58:01.325Z,99712.56
2022-10-22T14:00:28.023Z,99711.72
2022-10-22T14:02:57.129Z,99711.72
2022-10-22T14:05:23.778Z,99705.69
2022-10-22T14:07:50.372Z,99699.66
2022-10-22T14:10:21.632Z,99707.41
2022-10-22T14:12:52.382Z,99704.81
2022-10-22T14:15:24.178Z,99699.69
2022-10-22T14:18:00.728Z,99701.38
2022-10-22T14:20:31.217Z,99706.53
2022-10-22T14:23:02.373Z,99708.22
2022-10-22T14:25:34.909Z,99708.16
2022-10-22T14:28:01.496Z,99708.16
2022-10-22T14:30:30.232Z,99712.41
2022-10-22T14:32:57.807Z,99709.72
2022-10-22T14:35:24.803Z,99706.28
2022-10-22T14:37:51.745Z,99708.81
2022-10-22T14:40:19.560Z,99713.94
2022-10-22T14:42:46.997Z,99705.34
2022-10-22T14:45:23.756Z,99706.22
2022-10-22T14:47:51.247Z,99702.75
2022-10-22T14:50:18.589Z,99707.88
2022-10-22T14:52:45.191Z,99708.78
2022-10-22T14:55:12.800Z,99699.25
2022-10-22T14:57:39.795Z,99707.84
2022-10-22T15:00:08.831Z,99705.31
2022-10-22T15:02:35.593Z,99705.34
2022-10-22T15:05:02.250Z,99704.47
2022-10-22T15:07:29.965Z,99706.19
2022-10-22T15:09:56.550Z,99711.34
2022-10-22T15:12:23.480Z,99710.47
2022-10-22T15:14:50.220Z,99709.59
2022-10-22T15:17:17.734Z,99709.56
2022-10-22T15:19:44.709Z,99708.66
2022-10-22T15:22:12.162Z,99704.41
2022-10-22T15:24:38.779Z,99714.69
2022-10-22T15:27:05.418Z,99714.63
2022-10-22T15:29:35.368Z,99708.63
2022-10-22T15:32:02.066Z,99712.00
2022-10-22T15:34:34.509Z,99706.91
2022-10-22T15:37:02.320Z,99704.41
2022-10-22T15:39:29.279Z,99714.69
2022-10-22T15:41:55.958Z,99718.09
2022-10-22T15:44:31.679Z,99713.00
2022-10-22T15:46:58.572Z,99707.88
2022-10-22T15:49:26.219Z,99707.03
2022-10-22T15:51:53.209Z,99707.00
2022-10-22T15:54:24.469Z,99708.69
2022-10-22T15:56:51.259Z,99713.00
2022-10-22T15:59:18.146Z,99714.72
2022-10-22T16:01:44.956Z,99713.03
2022-10-22T16:04:11.540Z,99708.69
2022-10-22T16:06:39.712Z,99718.16
2022-10-22T16:09:08.010Z,99723.31
2022-10-22T16:11:34.818Z,99722.50
2022-10-22T16:14:01.420Z,99721.56
2022-10-22T16:16:29.324Z,99712.16
2022-10-22T16:18:56.208Z,99716.41
2022-10-22T16:21:23.659Z,99721.50
2022-10-22T16:23:50.595Z,99725.00
2022-10-22T16:26:18.022Z,99721.56
2022-10-22T16:28:45.665Z,99725.75
2022-10-22T16:31:13.388Z,99730.91
2022-10-22T16:33:42.932Z,99737.75
2022-10-22T16:36:14.454Z,99724.06
2022-10-22T16:38:41.070Z,99724.06
2022-10-22T16:41:15.409Z,99721.50
2022-10-22T16:43:42.937Z,99724.88
2022-10-22T16:46:09.536Z,99719.75
2022-10-22T16:48:40.409Z,99716.34
2022-10-22T16:51:08.491Z,99713.78
2022-10-22T16:56:10.704Z,99707.81
2022-10-22T16:58:37.738Z,99706.09
2022-10-22T17:01:08.237Z,99699.25
2022-10-22T17:03:35.150Z,99704.38
2022-10-22T17:06:03.842Z,99706.91
2022-10-22T17:08:31.092Z,99703.44
2022-10-22T17:10:57.703Z,99706.03
2022-10-22T17:13:24.346Z,99699.09
2022-10-22T17:15:50.905Z,99705.97
2022-10-22T17:18:17.491Z,99700.84
2022-10-22T17:20:44.131Z,99700.78
2022-10-22T17:23:10.759Z,99694.81
2022-10-22T17:25:42.828Z,99694.75
2022-10-22T17:28:10.379Z,99694.72
2022-10-22T17:30:39.079Z,99694.72
2022-10-22T17:33:06.249Z,99684.47
2022-10-22T17:35:33.535Z,99688.66
2022-10-22T17:38:00.151Z,99682.59
2022-10-22T17:40:27.077Z,99686.97
2022-10-22T17:42:53.817Z,99674.94
2022-10-22T17:45:20.413Z,99686.06
2022-10-22T17:47:47.008Z,99675.75
2022-10-22T17:50:13.572Z,99679.16
2022-10-22T17:52:40.529Z,99671.47
2022-10-22T17:55:07.530Z,99678.31
2022-10-22T17:57:34.168Z,99667.16
2022-10-22T18:00:00.878Z,99661.13
2022-10-22T18:02:27.436Z,99660.28
2022-10-22T18:04:54.016Z,99657.72
2022-10-22T18:07:21.113Z,99653.41
2022-10-22T18:09:47.915Z,99665.47
2022-10-22T18:12:14.828Z,99662.75
2022-10-22T18:14:41.419Z,99655.97
2022-10-22T18:17:08.315Z,99648.25
2022-10-22T18:19:34.951Z,99654.25
2022-10-22T18:22:01.783Z,99644.00
2022-10-22T18:24:28.371Z,99642.22
2022-10-22T18:26:54.929Z,99638.69
2022-10-22T18:29:21.649Z,99636.16
2022-10-22T18:31:48.722Z,99637.91
2022-10-22T18:34:17.611Z,99633.69
2022-10-22T18:36:46.968Z,99631.94
2022-10-22T18:39:16.706Z,99641.38
2022-10-22T18:41:43.634Z,99633.69
2022-10-22T18:44:12.898Z,99631.06
2022-10-22T18:46:40.218Z,99625.03
2022-10-22T18:49:11.688Z,99626.78
2022-10-22T18:51:38.256Z,99625.97
2022-10-22T18:54:21.386Z,99623.38
2022-10-22T18:56:52.013Z,99623.38
2022-10-22T18:59:23.276Z,99623.34
2022-10-22T19:01:51.325Z,99625.94
2022-10-22T19:04:18.061Z,99618.19
2022-10-22T19:06:45.936Z,99619.94
2022-10-22T19:09:13.913Z,99622.50
2022-10-22T19:11:40.562Z,99614.78
2022-10-22T19:14:07.211Z,99620.75
2022-10-22T19:16:35.197Z,99613.88
2022-10-22T19:19:05.973Z,99623.25
2022-10-22T19:21:32.649Z,99616.38
2022-10-22T19:23:59.877Z,99615.53
2022-10-22T19:26:27.688Z,99619.81
2022-10-22T19:28:54.752Z,99616.38
2022-10-22T19:31:22.361Z,99622.34
2022-10-22T19:33:48.986Z,99618.03
2022-10-22T19:36:17.081Z,99624.03
2022-10-22T19:38:45.240Z,99615.50
2022-10-22T19:41:13.338Z,99616.31
2022-10-22T19:43:43.615Z,99617.97
2022-10-22T19:46:10.673Z,99620.53
2022-10-22T19:48:37.832Z,99624.81
2022-10-22T19:51:08.535Z,99621.34
2022-10-22T19:53:36.387Z,99622.19
2022-10-22T19:56:04.690Z,99624.00
2022-10-22T19:58:31.349Z,99614.47
2022-10-22T20:01:02.718Z,99624.81
2022-10-22T20:03:29.421Z,99618.81
2022-10-22T20:05:56.023Z,99635.09
2022-10-22T20:08:22.781Z,99628.19
2022-10-22T20:10:49.427Z,99627.31
2022-10-22T20:13:16.395Z,99627.22
2022-10-22T20:15:42.989Z,99625.56
2022-10-22T20:18:10.180Z,99623.88
2022-10-22T20:20:40.308Z,99627.38
2022-10-22T20:23:08.764Z,99621.34
2022-10-22T20:25:35.717Z,99619.63
2022-10-22T20:28:04.297Z,99609.34
2022-10-22T20:30:39.851Z,99612.75
2022-10-22T20:33:06.911Z,99612.75
2022-10-22T20:35:38.278Z,99616.16
2022-10-22T20:38:08.483Z,99620.41
2022-10-22T20:41:00.557Z,99614.44
2022-10-22T20:44:13.885Z,99617.84
2022-10-22T20:46:48.551Z,99604.09
2022-10-22T20:49:43.429Z,99602.34
2022-10-22T20:52:35.103Z,99607.50
2022-10-22T20:55:24.067Z,99595.56
2022-10-22T20:57:50.693Z,99599.84
2022-10-22T21:00:17.656Z,99591.25
2022-10-22T21:02:44.497Z,99598.13
2022-10-22T21:05:11.239Z,99593.81
2022-10-22T21:07:37.856Z,99593.81
2022-10-22T21:10:04.659Z,99596.38
2022-10-22T21:12:31.274Z,99593.00
2022-10-22T21:14:57.868Z,99597.25
2022-10-22T21:17:24.437Z,99586.97
2022-10-22T21:19:51.027Z,99587.81
2022-10-22T21:22:17.652Z,99590.41
2022-10-22T21:24:44.214Z,99592.13
2022-10-22T21:27:10.869Z,99588.72
2022-10-22T21:29:37.501Z,99588.66
2022-10-22T21:32:04.205Z,99587.84
2022-10-22T21:34:33.256Z,99581.75
2022-10-22T21:37:03.528Z,99576.63
2022-10-22T21:39:30.429Z,99575.81
2022-10-22T21:41:57.064Z,99569.84
2022-10-22T21:44:23.773Z,99563.81
2022-10-22T21:46:50.516Z,99562.91
2022-10-22T21:49:17.135Z,99562.94
2022-10-22T21:51:43.860Z,99562.09
2022-10-22T21:54:12.657Z,99558.63
2022-10-22T21:56:39.472Z,99558.66
2022-10-22T21:59:06.499Z,99556.91
2022-10-22T22:01:33.435Z,99552.59
2022-10-22T22:04:00.324Z,99547.47
2022-10-22T22:06:30.865Z,99556.06
2022-10-22T22:08:59.982Z,99550.88
2022-10-22T22:11:27.348Z,99542.28
2022-10-22T22:13:54.674Z,99545.75
2022-10-22T22:16:28.265Z,99534.63
2022-10-22T22:18:56.802Z,99529.47
2022-10-22T22:21:23.539Z,99537.22
2022-10-22T22:23:50.688Z,99522.59
2022-10-22T22:26:24.052Z,99529.44
2022-10-22T22:28:53.565Z,99527.72
2022-10-22T22:31:28.319Z,99526.88
2022-10-22T22:33:59.271Z,99525.13
2022-10-22T22:36:25.903Z,99521.72
2022-10-22T22:38:56.462Z,99521.78
2022-10-22T22:41:23.344Z,99514.88
2022-10-22T22:43:50.050Z,99517.31
2022-10-22T22:46:16.756Z,99512.28
2022-10-22T22:48:43.376Z,99510.50
2022-10-22T22:51:10.403Z,99502.81
2022-10-22T22:53:36.980Z,99502.00
2022-10-22T22:56:14.573Z,99497.63
2022-10-22T22:58:41.572Z,99495.84
2022-10-22T23:01:14.352Z,99495.03
2022-10-22T23:03:41.412Z,99492.44
2022-10-22T23:06:08.112Z,99487.25
2022-10-22T23:08:35.170Z,99483.00
2022-10-22T23:11:03.347Z,99484.72
2022-10-22T23:13:30.791Z,99480.41
2022-10-22T23:16:00.289Z,99474.41
2022-10-22T23:18:42.890Z,99470.13
2022-10-22T23:21:20.614Z,99466.69
2022-10-22T23:23:51.599Z,99472.69
2022-10-22T23:26:19.330Z,99464.16
2022-10-22T23:28:46.484Z,99457.25
2022-10-22T23:31:14.081Z,99464.97
2022-10-22T23:33:41.038Z,99458.09
2022-10-22T23:36:08.100Z,99462.41
2022-10-22T23:38:35.980Z,99458.16
2022-10-22T23:41:02.743Z,99454.72
2022-10-22T23:43:29.800Z,99447.81
2022-10-22T23:45:56.402Z,99451.25
2022-10-22T23:48:23.108Z,99442.72
2022-10-22T23:50:50.241Z,99439.28
2022-10-22T23:53:16.917Z,99434.13
2022-10-22T23:55:44.181Z,99433.22
2022-10-22T23:58:11.311Z,99434.06
